sensor_id;sensor_type;location;lat;lon;timestamp;pressure;altitude;pressure_sealevel;temperature;humidity
75668;BME280;64266;48.798;44.756;2024-02-26T00:01:50;104137.31;;;-6.43;54.89
75668;BME280;64266;48.798;44.756;2024-02-26T00:06:54;104144.25;;;-6.48;55.33
75668;BME280;64266;48.798;44.756;2024-02-26T00:11:58;104166.09;;;-6.17;56.13
75668;BME280;64266;48.798;44.756;2024-02-26T00:17:02;104169.59;;;-6.19;54.49
75668;BME280;64266;48.798;44.756;2024-02-26T00:22:07;104109.78;;;-6.44;54.00
75668;BME280;64266;48.798;44.756;2024-02-26T00:27:11;104123.22;;;-6.27;53.89
75668;BME280;64266;48.798;44.756;2024-02-26T00:32:15;104124.84;;;-6.20;54.33
75668;BME280;64266;48.798;44.756;2024-02-26T00:37:18;104118.03;;;-6.24;54.30
75668;BME280;64266;48.798;44.756;2024-02-26T00:42:21;104136.78;;;-6.14;53.48
75668;BME280;64266;48.798;44.756;2024-02-26T00:47:24;104124.19;;;-6.32;53.90
75668;BME280;64266;48.798;44.756;2024-02-26T00:52:27;104146.50;;;-6.28;53.22
75668;BME280;64266;48.798;44.756;2024-02-26T00:57:30;104122.78;;;-6.50;53.85
75668;BME280;64266;48.798;44.756;2024-02-26T01:02:34;104126.03;;;-6.39;54.66
75668;BME280;64266;48.798;44.756;2024-02-26T01:07:37;104096.88;;;-6.44;52.73
75668;BME280;64266;48.798;44.756;2024-02-26T01:12:41;104152.50;;;-6.26;54.71
75668;BME280;64266;48.798;44.756;2024-02-26T01:17:44;104145.41;;;-6.15;53.40
75668;BME280;64266;48.798;44.756;2024-02-26T01:22:47;104092.38;;;-6.33;53.02
75668;BME280;64266;48.798;44.756;2024-02-26T01:27:52;104094.03;;;-6.29;52.62
75668;BME280;64266;48.798;44.756;2024-02-26T01:32:55;104133.28;;;-6.12;52.13
75668;BME280;64266;48.798;44.756;2024-02-26T01:37:58;104129.03;;;-6.14;53.36
75668;BME280;64266;48.798;44.756;2024-02-26T01:43:02;104078.97;;;-6.53;52.35
75668;BME280;64266;48.798;44.756;2024-02-26T01:48:05;104120.59;;;-6.22;52.48
75668;BME280;64266;48.798;44.756;2024-02-26T01:53:08;104046.41;;;-6.62;52.17
75668;BME280;64266;48.798;44.756;2024-02-26T01:58:12;104112.94;;;-6.28;51.66
75668;BME280;64266;48.798;44.756;2024-02-26T02:03:15;104101.94;;;-6.38;52.87
75668;BME280;64266;48.798;44.756;2024-02-26T02:08:20;104086.59;;;-6.47;52.88
75668;BME280;64266;48.798;44.756;2024-02-26T02:13:24;104093.38;;;-6.40;52.52
75668;BME280;64266;48.798;44.756;2024-02-26T02:18:27;104073.16;;;-6.66;53.00
75668;BME280;64266;48.798;44.756;2024-02-26T02:23:30;104093.38;;;-6.40;52.59
75668;BME280;64266;48.798;44.756;2024-02-26T02:28:33;104079.00;;;-6.56;51.41
75668;BME280;64266;48.798;44.756;2024-02-26T02:33:37;104073.19;;;-6.69;50.88
75668;BME280;64266;48.798;44.756;2024-02-26T02:38:49;104076.06;;;-6.88;52.34
75668;BME280;64266;48.798;44.756;2024-02-26T02:43:52;104014.72;;;-7.22;52.81
75668;BME280;64266;48.798;44.756;2024-02-26T02:48:55;104021.47;;;-7.15;52.38
75668;BME280;64266;48.798;44.756;2024-02-26T02:53:58;104080.56;;;-6.99;52.25
75668;BME280;64266;48.798;44.756;2024-02-26T02:59:02;104065.19;;;-7.07;53.50
75668;BME280;64266;48.798;44.756;2024-02-26T03:04:04;104072.78;;;-6.98;52.82
75668;BME280;64266;48.798;44.756;2024-02-26T03:09:09;104058.44;;;-7.14;51.60
75668;BME280;64266;48.798;44.756;2024-02-26T03:14:12;103974.28;;;-7.78;52.35
75668;BME280;64266;48.798;44.756;2024-02-26T03:19:18;104068.75;;;-7.16;52.51
75668;BME280;64266;48.798;44.756;2024-02-26T03:24:22;104064.41;;;-7.10;53.94
75668;BME280;64266;48.798;44.756;2024-02-26T03:29:25;104018.41;;;-7.41;53.00
75668;BME280;64266;48.798;44.756;2024-02-26T03:34:29;104055.41;;;-7.43;54.09
75668;BME280;64266;48.798;44.756;2024-02-26T03:39:33;104027.19;;;-7.52;53.84
75668;BME280;64266;48.798;44.756;2024-02-26T03:44:36;104051.94;;;-7.41;54.01
75668;BME280;64266;48.798;44.756;2024-02-26T03:49:40;104071.19;;;-7.06;54.45
75668;BME280;64266;48.798;44.756;2024-02-26T03:54:44;104081.50;;;-7.06;54.66
75668;BME280;64266;48.798;44.756;2024-02-26T03:59:46;104067.72;;;-7.02;54.01
75668;BME280;64266;48.798;44.756;2024-02-26T04:04:49;104035.84;;;-6.98;54.55
75668;BME280;64266;48.798;44.756;2024-02-26T04:09:52;104035.63;;;-6.85;52.84
75668;BME280;64266;48.798;44.756;2024-02-26T04:14:55;104046.69;;;-6.78;53.39
75668;BME280;64266;48.798;44.756;2024-02-26T04:19:59;104097.84;;;-6.51;53.31
75668;BME280;64266;48.798;44.756;2024-02-26T04:25:05;104055.19;;;-6.73;53.37
75668;BME280;64266;48.798;44.756;2024-02-26T04:30:09;104046.75;;;-6.83;54.13
75668;BME280;64266;48.798;44.756;2024-02-26T04:35:12;104004.44;;;-7.23;54.54
75668;BME280;64266;48.798;44.756;2024-02-26T04:40:15;104102.94;;;-6.48;54.67
75668;BME280;64266;48.798;44.756;2024-02-26T04:45:18;104111.28;;;-6.31;53.98
75668;BME280;64266;48.798;44.756;2024-02-26T04:50:21;104108.44;;;-6.16;53.36
75668;BME280;64266;48.798;44.756;2024-02-26T04:55:23;104060.78;;;-6.01;53.59
75668;BME280;64266;48.798;44.756;2024-02-26T05:00:27;104049.66;;;-5.23;51.19
75668;BME280;64266;48.798;44.756;2024-02-26T05:05:30;104069.47;;;-4.87;49.96
75668;BME280;64266;48.798;44.756;2024-02-26T05:10:34;104011.00;;;-5.31;49.67
75668;BME280;64266;48.798;44.756;2024-02-26T05:15:41;104007.91;;;-5.10;49.23
75668;BME280;64266;48.798;44.756;2024-02-26T05:20:44;104111.09;;;-4.25;49.80
75668;BME280;64266;48.798;44.756;2024-02-26T05:25:49;104039.31;;;-4.54;48.52
75668;BME280;64266;48.798;44.756;2024-02-26T05:30:53;104100.97;;;-4.02;49.22
75668;BME280;64266;48.798;44.756;2024-02-26T05:35:56;104111.91;;;-3.31;48.12
75668;BME280;64266;48.798;44.756;2024-02-26T05:41:00;104113.88;;;-2.56;47.10
75668;BME280;64266;48.798;44.756;2024-02-26T05:46:03;104061.09;;;-2.07;44.40
75668;BME280;64266;48.798;44.756;2024-02-26T05:51:07;104112.75;;;-0.62;41.98
75668;BME280;64266;48.798;44.756;2024-02-26T05:56:10;104105.25;;;0.50;40.69
75668;BME280;64266;48.798;44.756;2024-02-26T06:01:16;104042.75;;;0.83;37.25
75668;BME280;64266;48.798;44.756;2024-02-26T06:06:20;104041.84;;;1.37;36.70
75668;BME280;64266;48.798;44.756;2024-02-26T06:11:26;104048.66;;;2.07;35.27
75668;BME280;64266;48.798;44.756;2024-02-26T06:16:30;104093.50;;;2.65;35.03
75668;BME280;64266;48.798;44.756;2024-02-26T06:21:33;104071.28;;;2.88;34.32
75668;BME280;64266;48.798;44.756;2024-02-26T06:26:36;104097.78;;;3.28;34.74
75668;BME280;64266;48.798;44.756;2024-02-26T06:31:39;104081.19;;;2.98;33.39
75668;BME280;64266;48.798;44.756;2024-02-26T06:36:42;104070.66;;;2.20;34.36
75668;BME280;64266;48.798;44.756;2024-02-26T06:41:46;104107.78;;;2.11;34.44
75668;BME280;64266;48.798;44.756;2024-02-26T06:46:49;104090.75;;;1.35;35.76
75668;BME280;64266;48.798;44.756;2024-02-26T06:51:54;104067.72;;;1.07;37.39
75668;BME280;64266;48.798;44.756;2024-02-26T06:56:56;104099.41;;;1.19;37.36
75668;BME280;64266;48.798;44.756;2024-02-26T07:02:01;104082.06;;;0.99;38.06
75668;BME280;64266;48.798;44.756;2024-02-26T07:07:05;104082.81;;;1.20;37.60
75668;BME280;64266;48.798;44.756;2024-02-26T07:12:08;104044.81;;;1.13;37.81
75668;BME280;64266;48.798;44.756;2024-02-26T07:17:11;104099.91;;;1.44;38.15
75668;BME280;64266;48.798;44.756;2024-02-26T07:22:16;104051.81;;;1.12;38.02
75668;BME280;64266;48.798;44.756;2024-02-26T07:27:19;104037.53;;;1.36;37.87
75668;BME280;64266;48.798;44.756;2024-02-26T07:32:24;104080.50;;;1.48;37.81
75668;BME280;64266;48.798;44.756;2024-02-26T07:37:30;104045.19;;;0.69;38.79
75668;BME280;64266;48.798;44.756;2024-02-26T07:42:33;104073.34;;;0.63;39.47
75668;BME280;64266;48.798;44.756;2024-02-26T07:47:36;104078.28;;;0.50;40.06
75668;BME280;64266;48.798;44.756;2024-02-26T07:52:43;104071.53;;;0.27;40.29
75668;BME280;64266;48.798;44.756;2024-02-26T07:57:48;104085.84;;;0.37;41.00
75668;BME280;64266;48.798;44.756;2024-02-26T08:02:52;104039.94;;;0.33;40.19
75668;BME280;64266;48.798;44.756;2024-02-26T08:07:56;104053.88;;;0.51;39.70
75668;BME280;64266;48.798;44.756;2024-02-26T08:13:00;104066.56;;;0.77;40.01
75668;BME280;64266;48.798;44.756;2024-02-26T08:18:08;104057.91;;;0.77;39.85
75668;BME280;64266;48.798;44.756;2024-02-26T08:23:15;104039.78;;;0.55;39.08
75668;BME280;64266;48.798;44.756;2024-02-26T08:28:18;104054.94;;;0.66;38.71
75668;BME280;64266;48.798;44.756;2024-02-26T08:33:22;104044.03;;;0.75;38.68
75668;BME280;64266;48.798;44.756;2024-02-26T08:38:26;103993.09;;;0.66;39.18
75668;BME280;64266;48.798;44.756;2024-02-26T08:43:29;104026.53;;;1.13;37.89
75668;BME280;64266;48.798;44.756;2024-02-26T08:48:32;104028.16;;;1.32;38.36
75668;BME280;64266;48.798;44.756;2024-02-26T08:53:37;103998.78;;;1.27;37.70
75668;BME280;64266;48.798;44.756;2024-02-26T08:58:45;103978.47;;;1.15;38.18
75668;BME280;64266;48.798;44.756;2024-02-26T09:03:51;103978.94;;;1.06;36.85
75668;BME280;64266;48.798;44.756;2024-02-26T09:08:54;104013.75;;;1.24;38.62
75668;BME280;64266;48.798;44.756;2024-02-26T09:14:02;104002.09;;;1.14;38.57
75668;BME280;64266;48.798;44.756;2024-02-26T09:19:06;104002.19;;;1.29;38.38
75668;BME280;64266;48.798;44.756;2024-02-26T09:24:10;103975.72;;;1.35;38.81
75668;BME280;64266;48.798;44.756;2024-02-26T09:29:13;103992.84;;;1.41;36.36
75668;BME280;64266;48.798;44.756;2024-02-26T09:34:17;103988.47;;;1.41;37.32
75668;BME280;64266;48.798;44.756;2024-02-26T09:39:22;103963.16;;;1.42;36.32
75668;BME280;64266;48.798;44.756;2024-02-26T09:44:27;103983.38;;;1.55;36.10
75668;BME280;64266;48.798;44.756;2024-02-26T09:49:32;103974.56;;;1.41;36.38
75668;BME280;64266;48.798;44.756;2024-02-26T09:54:37;103933.28;;;1.13;35.77
75668;BME280;64266;48.798;44.756;2024-02-26T09:59:42;103954.81;;;1.35;35.66
75668;BME280;64266;48.798;44.756;2024-02-26T10:04:47;103950.00;;;1.43;36.05
75668;BME280;64266;48.798;44.756;2024-02-26T10:09:54;103921.34;;;1.57;36.64
75668;BME280;64266;48.798;44.756;2024-02-26T10:14:57;103909.41;;;1.53;34.73
75668;BME280;64266;48.798;44.756;2024-02-26T10:20:15;103886.22;;;1.30;36.57
75668;BME280;64266;48.798;44.756;2024-02-26T10:25:19;103919.63;;;1.74;35.45
75668;BME280;64266;48.798;44.756;2024-02-26T10:30:23;103922.16;;;1.91;36.00
75668;BME280;64266;48.798;44.756;2024-02-26T10:35:30;103913.50;;;1.90;36.17
75668;BME280;64266;48.798;44.756;2024-02-26T10:40:37;103907.94;;;1.96;36.20
75668;BME280;64266;48.798;44.756;2024-02-26T10:45:43;103890.44;;;1.81;33.96
75668;BME280;64266;48.798;44.756;2024-02-26T10:50:48;103881.94;;;1.93;35.30
75668;BME280;64266;48.798;44.756;2024-02-26T10:56:00;103904.53;;;2.10;38.44
75668;BME280;64266;48.798;44.756;2024-02-26T11:01:05;103877.53;;;1.94;39.51
75668;BME280;64266;48.798;44.756;2024-02-26T11:06:12;103877.94;;;2.17;40.42
75668;BME280;64266;48.798;44.756;2024-02-26T11:11:18;103869.47;;;2.12;40.56
75668;BME280;64266;48.798;44.756;2024-02-26T11:16:21;103841.38;;;1.85;40.07
75668;BME280;64266;48.798;44.756;2024-02-26T11:21:26;103853.81;;;1.81;41.16
75668;BME280;64266;48.798;44.756;2024-02-26T11:26:52;103810.50;;;1.29;41.81
75668;BME280;64266;48.798;44.756;2024-02-26T11:32:02;103860.38;;;1.41;41.78
75668;BME280;64266;48.798;44.756;2024-02-26T11:37:13;103816.19;;;1.04;42.55
75668;BME280;64266;48.798;44.756;2024-02-26T11:42:23;103842.13;;;1.40;42.37
75668;BME280;64266;48.798;44.756;2024-02-26T11:47:29;103852.16;;;1.32;42.26
75668;BME280;64266;48.798;44.756;2024-02-26T11:52:33;103816.28;;;1.18;42.07
75668;BME280;64266;48.798;44.756;2024-02-26T11:57:39;103846.84;;;1.33;42.01
75668;BME280;64266;48.798;44.756;2024-02-26T12:02:52;103806.22;;;0.95;41.43
75668;BME280;64266;48.798;44.756;2024-02-26T12:08:08;103838.88;;;1.19;42.34
75668;BME280;64266;48.798;44.756;2024-02-26T12:13:14;103832.88;;;1.17;42.35
75668;BME280;64266;48.798;44.756;2024-02-26T12:18:22;103801.41;;;1.03;42.06
75668;BME280;64266;48.798;44.756;2024-02-26T12:23:26;103809.47;;;1.16;40.84
75668;BME280;64266;48.798;44.756;2024-02-26T12:28:31;103803.28;;;1.01;41.09
75668;BME280;64266;48.798;44.756;2024-02-26T12:33:34;103839.75;;;1.20;41.51
75668;BME280;64266;48.798;44.756;2024-02-26T12:38:38;103824.13;;;1.18;41.31
75668;BME280;64266;48.798;44.756;2024-02-26T12:43:42;103725.63;;;0.54;41.84
75668;BME280;64266;48.798;44.756;2024-02-26T12:48:46;103823.44;;;1.15;42.09
75668;BME280;64266;48.798;44.756;2024-02-26T12:53:49;103786.06;;;0.97;42.41
75668;BME280;64266;48.798;44.756;2024-02-26T12:58:55;103789.06;;;0.89;43.28
75668;BME280;64266;48.798;44.756;2024-02-26T13:04:01;103777.75;;;0.73;44.07
75668;BME280;64266;48.798;44.756;2024-02-26T13:09:13;103792.94;;;0.65;44.92
75668;BME280;64266;48.798;44.756;2024-02-26T13:14:22;103776.69;;;0.26;46.08
75668;BME280;64266;48.798;44.756;2024-02-26T13:19:25;103709.03;;;-0.30;46.45
75668;BME280;64266;48.798;44.756;2024-02-26T13:24:29;103797.97;;;0.35;46.71
75668;BME280;64266;48.798;44.756;2024-02-26T13:29:33;103792.94;;;0.14;45.69
75668;BME280;64266;48.798;44.756;2024-02-26T13:34:38;103819.28;;;0.26;45.61
75668;BME280;64266;48.798;44.756;2024-02-26T13:39:41;103837.31;;;0.14;46.84
75668;BME280;64266;48.798;44.756;2024-02-26T13:44:45;103775.44;;;-0.37;47.60
75668;BME280;64266;48.798;44.756;2024-02-26T13:49:49;103836.34;;;-0.21;47.53
75668;BME280;64266;48.798;44.756;2024-02-26T13:54:54;103838.50;;;-0.29;48.10
75668;BME280;64266;48.798;44.756;2024-02-26T13:59:58;103834.84;;;-0.44;48.27
75668;BME280;64266;48.798;44.756;2024-02-26T14:05:38;103847.03;;;-0.26;48.05
75668;BME280;64266;48.798;44.756;2024-02-26T14:10:47;103812.78;;;-0.56;47.92
75668;BME280;64266;48.798;44.756;2024-02-26T14:15:50;103823.13;;;-0.73;48.68
75668;BME280;64266;48.798;44.756;2024-02-26T14:20:53;103831.44;;;-0.83;48.56
75668;BME280;64266;48.798;44.756;2024-02-26T14:25:57;103781.56;;;-1.33;49.72
75668;BME280;64266;48.798;44.756;2024-02-26T14:31:05;103812.00;;;-1.15;49.57
75668;BME280;64266;48.798;44.756;2024-02-26T14:36:14;103845.69;;;-0.92;49.43
75668;BME280;64266;48.798;44.756;2024-02-26T14:41:18;103855.34;;;-1.14;49.78
75668;BME280;64266;48.798;44.756;2024-02-26T14:46:23;103834.72;;;-1.39;49.71
75668;BME280;64266;48.798;44.756;2024-02-26T14:51:26;103862.25;;;-1.33;49.24
75668;BME280;64266;48.798;44.756;2024-02-26T14:56:29;103842.69;;;-1.43;50.58
75668;BME280;64266;48.798;44.756;2024-02-26T15:01:33;103873.81;;;-1.40;49.93
75668;BME280;64266;48.798;44.756;2024-02-26T15:06:38;103851.56;;;-1.69;50.73
75668;BME280;64266;48.798;44.756;2024-02-26T15:11:42;103869.22;;;-1.55;51.11
75668;BME280;64266;48.798;44.756;2024-02-26T15:16:48;103881.75;;;-1.65;51.66
75668;BME280;64266;48.798;44.756;2024-02-26T15:21:51;103874.53;;;-1.79;52.44
75668;BME280;64266;48.798;44.756;2024-02-26T15:26:54;103855.59;;;-2.04;52.35
75668;BME280;64266;48.798;44.756;2024-02-26T15:32:00;103861.56;;;-2.02;52.66
75668;BME280;64266;48.798;44.756;2024-02-26T15:37:06;103875.47;;;-2.03;52.28
75668;BME280;64266;48.798;44.756;2024-02-26T15:42:09;103852.06;;;-2.25;53.24
75668;BME280;64266;48.798;44.756;2024-02-26T15:47:12;103804.03;;;-2.59;53.00
75668;BME280;64266;48.798;44.756;2024-02-26T15:52:17;103868.59;;;-2.27;53.90
75668;BME280;64266;48.798;44.756;2024-02-26T15:57:21;103854.66;;;-2.48;54.09
75668;BME280;64266;48.798;44.756;2024-02-26T16:02:26;103843.09;;;-2.62;53.40
75668;BME280;64266;48.798;44.756;2024-02-26T16:07:39;103883.09;;;-2.43;53.65
75668;BME280;64266;48.798;44.756;2024-02-26T16:12:53;103878.72;;;-2.43;53.76
75668;BME280;64266;48.798;44.756;2024-02-26T16:17:56;103850.19;;;-2.67;53.51
75668;BME280;64266;48.798;44.756;2024-02-26T16:23:01;103811.50;;;-2.98;54.93
75668;BME280;64266;48.798;44.756;2024-02-26T16:28:09;103841.31;;;-2.85;55.62
75668;BME280;64266;48.798;44.756;2024-02-26T16:33:12;103843.91;;;-2.85;55.61
75668;BME280;64266;48.798;44.756;2024-02-26T16:38:19;103751.19;;;-3.53;55.65
75668;BME280;64266;48.798;44.756;2024-02-26T16:43:22;103875.47;;;-2.96;56.05
75668;BME280;64266;48.798;44.756;2024-02-26T16:48:25;103854.69;;;-3.20;55.45
75668;BME280;64266;48.798;44.756;2024-02-26T16:53:31;103845.28;;;-3.23;56.48
75668;BME280;64266;48.798;44.756;2024-02-26T16:59:01;103829.41;;;-3.40;56.24
75668;BME280;64266;48.798;44.756;2024-02-26T17:04:06;103855.81;;;-3.28;56.51
75668;BME280;64266;48.798;44.756;2024-02-26T17:09:11;103852.13;;;-3.47;56.85
75668;BME280;64266;48.798;44.756;2024-02-26T17:14:14;103865.84;;;-3.43;56.73
75668;BME280;64266;48.798;44.756;2024-02-26T17:19:19;103824.97;;;-3.88;57.50
75668;BME280;64266;48.798;44.756;2024-02-26T17:24:23;103828.00;;;-4.03;57.25
75668;BME280;64266;48.798;44.756;2024-02-26T17:29:26;103844.56;;;-3.79;58.26
75668;BME280;64266;48.798;44.756;2024-02-26T17:34:30;103855.50;;;-3.71;56.27
75668;BME280;64266;48.798;44.756;2024-02-26T17:39:33;103853.19;;;-3.78;56.24
75668;BME280;64266;48.798;44.756;2024-02-26T17:44:37;103842.06;;;-3.82;56.01
75668;BME280;64266;48.798;44.756;2024-02-26T17:49:41;103847.03;;;-3.76;56.90
75668;BME280;64266;48.798;44.756;2024-02-26T17:54:44;103843.84;;;-3.58;56.39
75668;BME280;64266;48.798;44.756;2024-02-26T17:59:47;103693.81;;;-4.46;55.97
75668;BME280;64266;48.798;44.756;2024-02-26T18:04:51;103835.31;;;-3.61;56.31
75668;BME280;64266;48.798;44.756;2024-02-26T18:09:54;103816.78;;;-3.75;55.50
75668;BME280;64266;48.798;44.756;2024-02-26T18:15:02;103756.31;;;-4.02;56.47
75668;BME280;64266;48.798;44.756;2024-02-26T18:20:09;103833.63;;;-3.62;55.39
75668;BME280;64266;48.798;44.756;2024-02-26T18:25:16;103825.91;;;-3.64;55.66
75668;BME280;64266;48.798;44.756;2024-02-26T18:30:19;103830.78;;;-3.55;55.69
75668;BME280;64266;48.798;44.756;2024-02-26T18:35:24;103816.59;;;-3.69;55.32
75668;BME280;64266;48.798;44.756;2024-02-26T18:40:28;103712.34;;;-4.31;55.13
75668;BME280;64266;48.798;44.756;2024-02-26T18:45:32;103778.47;;;-3.94;54.57
75668;BME280;64266;48.798;44.756;2024-02-26T18:50:35;103813.25;;;-3.73;54.63
75668;BME280;64266;48.798;44.756;2024-02-26T18:55:40;103773.94;;;-3.87;54.75
75668;BME280;64266;48.798;44.756;2024-02-26T19:00:43;103808.00;;;-3.71;54.12
75668;BME280;64266;48.798;44.756;2024-02-26T19:05:49;103796.16;;;-3.78;53.91
75668;BME280;64266;48.798;44.756;2024-02-26T19:10:52;103790.91;;;-3.77;53.88
75668;BME280;64266;48.798;44.756;2024-02-26T19:15:56;103772.41;;;-3.93;53.16
75668;BME280;64266;48.798;44.756;2024-02-26T19:21:00;103807.34;;;-3.78;53.87
75668;BME280;64266;48.798;44.756;2024-02-26T19:26:05;103810.97;;;-3.84;54.48
75668;BME280;64266;48.798;44.756;2024-02-26T19:31:09;103838.41;;;-3.76;53.67
75668;BME280;64266;48.798;44.756;2024-02-26T19:36:14;103826.03;;;-3.68;53.59
75668;BME280;64266;48.798;44.756;2024-02-26T19:41:17;103819.91;;;-3.66;53.77
75668;BME280;64266;48.798;44.756;2024-02-26T19:46:21;103783.06;;;-4.02;53.54
75668;BME280;64266;48.798;44.756;2024-02-26T19:51:23;103766.94;;;-4.10;54.01
75668;BME280;64266;48.798;44.756;2024-02-26T19:56:26;103738.81;;;-4.22;52.66
75668;BME280;64266;48.798;44.756;2024-02-26T20:01:32;103796.63;;;-3.94;53.49
75668;BME280;64266;48.798;44.756;2024-02-26T20:06:38;103832.34;;;-3.75;53.86
75668;BME280;64266;48.798;44.756;2024-02-26T20:11:43;103751.31;;;-4.08;53.25
75668;BME280;64266;48.798;44.756;2024-02-26T20:16:47;103829.44;;;-3.66;51.82
75668;BME280;64266;48.798;44.756;2024-02-26T20:21:52;103843.44;;;-3.72;51.44
75668;BME280;64266;48.798;44.756;2024-02-26T20:26:56;103828.44;;;-3.89;52.84
75668;BME280;64266;48.798;44.756;2024-02-26T20:31:59;103832.75;;;-3.88;52.59
75668;BME280;64266;48.798;44.756;2024-02-26T20:37:02;103779.97;;;-4.13;52.78
75668;BME280;64266;48.798;44.756;2024-02-26T20:42:06;103820.28;;;-3.76;52.21
75668;BME280;64266;48.798;44.756;2024-02-26T20:47:11;103845.19;;;-3.46;51.23
75668;BME280;64266;48.798;44.756;2024-02-26T20:52:14;103838.91;;;-3.39;50.85
75668;BME280;64266;48.798;44.756;2024-02-26T20:57:18;103788.47;;;-3.81;50.37
75668;BME280;64266;48.798;44.756;2024-02-26T21:02:21;103851.19;;;-3.70;52.21
75668;BME280;64266;48.798;44.756;2024-02-26T21:07:35;103823.78;;;-4.05;51.04
75668;BME280;64266;48.798;44.756;2024-02-26T21:12:39;103801.31;;;-4.32;52.20
75668;BME280;64266;48.798;44.756;2024-02-26T21:17:41;103834.59;;;-3.93;51.78
75668;BME280;64266;48.798;44.756;2024-02-26T21:22:45;103818.28;;;-3.95;51.59
75668;BME280;64266;48.798;44.756;2024-02-26T21:27:49;103822.28;;;-3.85;50.61
75668;BME280;64266;48.798;44.756;2024-02-26T21:32:52;103850.88;;;-3.61;50.80
75668;BME280;64266;48.798;44.756;2024-02-26T21:37:56;103849.03;;;-3.58;50.63
75668;BME280;64266;48.798;44.756;2024-02-26T21:42:58;103834.53;;;-3.63;50.42
75668;BME280;64266;48.798;44.756;2024-02-26T21:48:02;103830.28;;;-3.66;49.42
75668;BME280;64266;48.798;44.756;2024-02-26T21:53:05;103844.34;;;-3.47;49.63
75668;BME280;64266;48.798;44.756;2024-02-26T21:58:08;103803.94;;;-3.78;49.20
75668;BME280;64266;48.798;44.756;2024-02-26T22:03:11;103849.44;;;-3.70;49.65
75668;BME280;64266;48.798;44.756;2024-02-26T22:08:15;103841.31;;;-3.86;50.21
75668;BME280;64266;48.798;44.756;2024-02-26T22:13:18;103851.66;;;-3.86;50.02
75668;BME280;64266;48.798;44.756;2024-02-26T22:18:21;103798.44;;;-4.23;50.52
75668;BME280;64266;48.798;44.756;2024-02-26T22:23:25;103818.22;;;-4.21;50.19
75668;BME280;64266;48.798;44.756;2024-02-26T22:28:28;103796.91;;;-4.30;50.33
75668;BME280;64266;48.798;44.756;2024-02-26T22:33:34;103826.34;;;-4.04;50.19
75668;BME280;64266;48.798;44.756;2024-02-26T22:38:37;103835.75;;;-4.01;49.98
75668;BME280;64266;48.798;44.756;2024-02-26T22:43:41;103829.03;;;-4.07;50.30
75668;BME280;64266;48.798;44.756;2024-02-26T22:48:44;103855.59;;;-4.00;50.24
75668;BME280;64266;48.798;44.756;2024-02-26T22:53:47;103807.66;;;-4.43;49.62
75668;BME280;64266;48.798;44.756;2024-02-26T22:58:50;103849.66;;;-4.33;50.67
75668;BME280;64266;48.798;44.756;2024-02-26T23:03:54;103865.88;;;-4.26;49.64
75668;BME280;64266;48.798;44.756;2024-02-26T23:08:59;103810.34;;;-4.75;49.57
75668;BME280;64266;48.798;44.756;2024-02-26T23:14:02;103860.38;;;-4.45;50.51
75668;BME280;64266;48.798;44.756;2024-02-26T23:19:06;103826.72;;;-4.74;49.72
75668;BME280;64266;48.798;44.756;2024-02-26T23:24:09;103837.59;;;-4.93;49.96
75668;BME280;64266;48.798;44.756;2024-02-26T23:29:12;103874.47;;;-4.86;50.10
75668;BME280;64266;48.798;44.756;2024-02-26T23:34:15;103878.13;;;-4.93;50.13
75668;BME280;64266;48.798;44.756;2024-02-26T23:39:18;103875.91;;;-5.07;50.11
75668;BME280;64266;48.798;44.756;2024-02-26T23:44:21;103859.28;;;-5.30;49.28
75668;BME280;64266;48.798;44.756;2024-02-26T23:49:23;103879.13;;;-5.31;49.29
75668;BME280;64266;48.798;44.756;2024-02-26T23:54:26;103823.59;;;-5.50;49.45
75668;BME280;64266;48.798;44.756;2024-02-26T23:59:29;103878.72;;;-5.48;50.26
